Time;durP1;ratioP1;P1;durP2;ratioP2;P2;SDS_P1;SDS_P2;PMS_P1;PMS_P2;Temp;Humidity;BMP_temperature;BMP_pressure;BME280_temperature;BME280_humidity;BME280_pressure;Samples;Min_cycle;Max_cycle;Signal;HPM_P1;HPM_P2
2022/09/11 00:02:18;;;;;;;0.53;0.53;;;;;13.40;96094.00;;;;5096853;28;20194;-67
2022/09/11 00:04:45;;;;;;;0.60;0.60;;;;;13.30;96090.00;;;;5096739;28;20571;-67
2022/09/11 00:07:15;;;;;;;0.70;0.70;;;;;13.40;96084.00;;;;5114487;28;20225;-66
2022/09/11 00:09:42;;;;;;;0.70;0.70;;;;;13.30;96092.00;;;;5114515;28;20204;-66
2022/09/11 00:12:09;;;;;;;0.70;0.70;;;;;13.20;96086.00;;;;5114738;28;20202;-66
2022/09/11 00:14:39;;;;;;;0.90;0.90;;;;;13.20;96087.00;;;;5114350;28;20646;-66
2022/09/11 00:17:06;;;;;;;0.50;0.50;;;;;13.20;96083.00;;;;5114405;28;20213;-67
2022/09/11 00:19:35;;;;;;;1.00;1.00;;;;;13.20;96080.00;;;;5096476;28;20222;-66
2022/09/11 00:22:01;;;;;;;0.60;0.60;;;;;13.20;96086.00;;;;5114370;28;20664;-67
2022/09/11 00:24:28;;;;;;;0.70;0.70;;;;;13.20;96084.00;;;;5114429;28;20208;-66
2022/09/11 00:26:56;;;;;;;0.70;0.70;;;;;13.10;96090.00;;;;5114306;28;20672;-68
2022/09/11 00:29:22;;;;;;;0.80;0.80;;;;;13.10;96080.00;;;;5114203;28;20217;-66
2022/09/11 00:31:49;;;;;;;0.50;0.50;;;;;13.10;96094.00;;;;5114196;28;20213;-66
2022/09/11 00:34:16;;;;;;;0.63;0.63;;;;;13.10;96101.00;;;;5114164;28;20300;-65
2022/09/11 00:36:43;;;;;;;0.70;0.70;;;;;13.10;96092.00;;;;5096092;28;20206;-67
2022/09/11 00:39:13;;;;;;;0.53;0.53;;;;;13.10;96087.00;;;;5114140;28;20311;-66
2022/09/11 00:41:45;;;;;;;0.60;0.60;;;;;13.20;96086.00;;;;5113438;28;20190;-66
2022/09/11 00:44:45;;;;;;;0.60;0.60;;;;;13.20;96084.00;;;;5096036;28;20232;-67
2022/09/11 00:47:17;;;;;;;0.50;0.50;;;;;13.20;96076.00;;;;5113857;28;20232;-66
2022/09/11 00:49:47;;;;;;;0.83;0.83;;;;;13.10;96089.00;;;;5096029;28;20248;-66
2022/09/11 00:52:17;;;;;;;0.60;0.60;;;;;13.20;96085.00;;;;5113982;28;20706;-66
2022/09/11 00:54:48;;;;;;;0.67;0.67;;;;;13.20;96082.00;;;;5113772;28;20236;-66
2022/09/11 00:57:17;;;;;;;0.50;0.50;;;;;13.20;96081.00;;;;5113912;28;20197;-66
2022/09/11 00:59:46;;;;;;;0.60;0.60;;;;;13.20;96084.00;;;;5113800;28;20221;-67
2022/09/11 01:02:18;;;;;;;0.60;0.60;;;;;13.20;96073.00;;;;5113962;28;20218;-66
2022/09/11 01:04:45;;;;;;;0.50;0.50;;;;;13.40;96073.00;;;;5113791;28;20850;-66
2022/09/11 01:07:14;;;;;;;0.43;0.43;;;;;13.30;96072.00;;;;5113682;28;20213;-66
2022/09/11 01:09:42;;;;;;;0.80;0.80;;;;;13.30;96078.00;;;;5113600;28;20236;-66
2022/09/11 01:12:16;;;;;;;0.70;0.70;;;;;13.10;96077.00;;;;5113731;28;20206;-65
2022/09/11 01:14:52;;;;;;;0.50;0.50;;;;;13.10;96073.00;;;;5113431;28;20218;-66
2022/09/11 01:17:26;;;;;;;0.50;0.50;;;;;13.10;96081.00;;;;5113603;28;20193;-66
2022/09/11 01:20:24;;;;;;;0.50;0.50;;;;;13.10;96072.00;;;;5113454;28;20648;-66
2022/09/11 01:23:29;;;;;;;0.60;0.60;;;;;13.10;96076.00;;;;5113577;28;20531;-65
2022/09/11 01:26:11;;;;;;;0.50;0.50;;;;;13.00;96075.00;;;;5113603;28;20186;-66
2022/09/11 01:28:47;;;;;;;0.70;0.70;;;;;13.10;96075.00;;;;5113484;28;20221;-66
2022/09/11 01:31:17;;;;;;;0.60;0.60;;;;;13.10;96089.00;;;;5113446;28;20213;-67
2022/09/11 01:33:49;;;;;;;0.50;0.50;;;;;13.10;96080.00;;;;5113416;28;20246;-66
2022/09/11 01:36:21;;;;;;;0.57;0.57;;;;;13.20;96086.00;;;;5113440;28;20190;-66
2022/09/11 01:38:53;;;;;;;0.97;0.97;;;;;13.20;96076.00;;;;5113256;28;20221;-66
2022/09/11 01:41:26;;;;;;;0.73;0.73;;;;;13.20;96073.00;;;;5113357;28;20643;-64
2022/09/11 01:44:02;;;;;;;0.63;0.63;;;;;13.20;96071.00;;;;5113298;28;20328;-64
2022/09/11 01:46:34;;;;;;;0.50;0.50;;;;;13.20;96074.00;;;;5113182;28;20209;-65
2022/09/11 01:49:05;;;;;;;0.73;0.73;;;;;13.20;96081.00;;;;5113377;28;20301;-65
2022/09/11 01:51:37;;;;;;;1.00;1.00;;;;;13.30;96071.00;;;;5113243;28;20209;-66
2022/09/11 01:54:10;;;;;;;0.60;0.60;;;;;13.30;96076.00;;;;5115459;28;20236;-66
2022/09/11 01:56:43;;;;;;;0.60;0.60;;;;;13.30;96084.00;;;;5116674;28;20202;-66
2022/09/11 01:59:15;;;;;;;2.20;1.10;;;;;13.30;96080.00;;;;5116648;28;20214;-66
2022/09/11 02:01:49;;;;;;;0.50;0.50;;;;;13.30;96078.00;;;;5116572;28;20262;-69
2022/09/11 02:04:23;;;;;;;0.53;0.53;;;;;13.40;96079.00;;;;5116585;28;20367;-66
2022/09/11 02:06:55;;;;;;;0.50;0.50;;;;;13.50;96082.00;;;;5116484;28;20209;-65
2022/09/11 02:09:26;;;;;;;1.43;0.90;;;;;13.50;96078.00;;;;5098413;28;20563;-65
2022/09/11 02:11:57;;;;;;;1.57;0.97;;;;;13.40;96075.00;;;;5116523;28;20281;-64
2022/09/11 02:14:30;;;;;;;0.97;0.87;;;;;13.40;96080.00;;;;5116268;28;20270;-68
2022/09/11 02:17:08;;;;;;;1.00;1.00;;;;;13.30;96080.00;;;;5116404;28;20263;-65
2022/09/11 02:19:39;;;;;;;0.60;0.60;;;;;13.30;96084.00;;;;5116294;28;20613;-66
2022/09/11 02:22:06;;;;;;;0.70;0.70;;;;;13.20;96078.00;;;;5116526;28;20239;-66
2022/09/11 02:24:33;;;;;;;0.90;0.90;;;;;13.20;96084.00;;;;5098141;28;20217;-66
2022/09/11 02:27:02;;;;;;;0.70;0.70;;;;;13.20;96087.00;;;;5116136;28;20214;-66
2022/09/11 02:29:30;;;;;;;0.90;0.90;;;;;13.30;96089.00;;;;5116280;28;20217;-66
2022/09/11 02:31:59;;;;;;;1.30;0.87;;;;;13.20;96090.00;;;;5116173;28;20194;-64
2022/09/11 02:34:28;;;;;;;0.50;0.50;;;;;13.10;96090.00;;;;5116064;28;20214;-66
2022/09/11 02:37:13;;;;;;;1.23;1.13;;;;;13.00;96093.00;;;;5116062;28;20294;-65
2022/09/11 02:40:00;;;;;;;0.67;0.67;;;;;13.20;96087.00;;;;5115884;28;20251;-65
2022/09/11 02:42:42;;;;;;;1.47;1.37;;;;;13.20;96086.00;;;;5098102;28;20248;-66
2022/09/11 02:45:22;;;;;;;0.80;0.80;;;;;13.10;96087.00;;;;5115902;28;20251;-65
2022/09/11 02:47:59;;;;;;;0.60;0.60;;;;;13.20;96093.00;;;;5115777;28;20221;-65
2022/09/11 02:50:38;;;;;;;0.70;0.70;;;;;13.20;96099.00;;;;5115747;28;20226;-65
2022/09/11 02:53:10;;;;;;;0.70;0.70;;;;;13.30;96096.00;;;;5115746;28;20641;-65
2022/09/11 02:55:50;;;;;;;0.70;0.70;;;;;13.30;96090.00;;;;5115699;28;20218;-63
2022/09/11 02:58:25;;;;;;;2.23;0.97;;;;;13.40;96098.00;;;;5115765;28;20198;-66
2022/09/11 03:00:55;;;;;;;0.67;0.67;;;;;13.60;96102.00;;;;5115852;28;20554;-66
2022/09/11 03:03:22;;;;;;;1.03;1.03;;;;;13.50;96102.00;;;;5115227;28;20222;-66
2022/09/11 03:05:48;;;;;;;1.63;1.53;;;;;13.50;96098.00;;;;5097557;28;20252;-66
2022/09/11 03:08:16;;;;;;;0.60;0.60;;;;;13.50;96091.00;;;;5115662;28;20230;-66
2022/09/11 03:10:45;;;;;;;0.70;0.70;;;;;13.60;96095.00;;;;5115425;28;20218;-66
2022/09/11 03:13:13;;;;;;;0.60;0.60;;;;;13.60;96093.00;;;;5115466;28;20194;-66
2022/09/11 03:15:42;;;;;;;0.60;0.60;;;;;13.60;96097.00;;;;5097530;28;20232;-66
2022/09/11 03:18:10;;;;;;;0.93;0.90;;;;;13.60;96095.00;;;;5115460;28;20198;-65
2022/09/11 03:20:39;;;;;;;0.70;0.70;;;;;13.60;96100.00;;;;5115320;28;20236;-66
2022/09/11 03:23:09;;;;;;;0.67;0.67;;;;;13.60;96095.00;;;;5115271;28;20216;-66
2022/09/11 03:25:36;;;;;;;0.80;0.80;;;;;13.60;96092.00;;;;5097306;28;20237;-66
2022/09/11 03:28:05;;;;;;;0.50;0.50;;;;;13.50;96108.00;;;;5115214;28;20660;-66
2022/09/11 03:30:33;;;;;;;0.50;0.50;;;;;13.60;96105.00;;;;5115128;28;20649;-66
2022/09/11 03:32:59;;;;;;;0.60;0.60;;;;;13.70;96109.00;;;;5115136;28;20645;-65
2022/09/11 03:35:29;;;;;;;0.60;0.60;;;;;13.70;96118.00;;;;5115027;28;20222;-65
2022/09/11 03:37:59;;;;;;;0.60;0.60;;;;;13.60;96109.00;;;;5097033;28;20217;-66
2022/09/11 03:40:26;;;;;;;1.17;1.17;;;;;13.60;96114.00;;;;5114945;28;20217;-66
2022/09/11 03:42:53;;;;;;;0.60;0.60;;;;;13.60;96106.00;;;;5114931;28;20217;-66
2022/09/11 03:45:20;;;;;;;0.77;0.77;;;;;13.60;96109.00;;;;5114864;28;20232;-66
2022/09/11 03:47:47;;;;;;;0.60;0.60;;;;;13.60;96115.00;;;;5114892;28;20244;-66
2022/09/11 03:50:14;;;;;;;0.90;0.90;;;;;13.70;96118.00;;;;5114666;28;20229;-66
2022/09/11 03:52:42;;;;;;;0.90;0.90;;;;;13.70;96118.00;;;;5114789;28;20202;-66
2022/09/11 03:55:09;;;;;;;0.83;0.83;;;;;13.60;96118.00;;;;5114756;28;20288;-66
2022/09/11 03:57:37;;;;;;;0.97;0.97;;;;;13.60;96113.00;;;;5114766;28;20189;-66
2022/09/11 04:00:06;;;;;;;0.60;0.60;;;;;13.60;96119.00;;;;5114658;28;20218;-64
2022/09/11 04:02:35;;;;;;;0.60;0.60;;;;;13.70;96116.00;;;;5114710;28;20530;-65
2022/09/11 04:05:03;;;;;;;1.03;1.03;;;;;13.70;96116.00;;;;5114546;28;20222;-65
2022/09/11 04:07:30;;;;;;;0.63;0.63;;;;;13.70;96126.00;;;;5114520;28;20218;-66
2022/09/11 04:09:57;;;;;;;1.00;1.00;;;;;13.80;96126.00;;;;5114491;28;20218;-66
2022/09/11 04:12:24;;;;;;;10.80;9.67;;;;;13.80;96124.00;;;;5114545;28;20186;-66
2022/09/11 04:14:51;;;;;;;3.03;1.73;;;;;13.90;96123.00;;;;5096073;28;20232;-65
2022/09/11 04:17:20;;;;;;;0.60;0.60;;;;;13.90;96122.00;;;;5113897;28;20187;-65
2022/09/11 04:19:47;;;;;;;0.87;0.87;;;;;13.80;96124.00;;;;5114255;28;20183;-65
2022/09/11 04:22:14;;;;;;;1.00;0.80;;;;;13.90;96125.00;;;;5114415;28;20191;-65
2022/09/11 04:24:40;;;;;;;0.60;0.60;;;;;13.80;96124.00;;;;5114344;28;20206;-65
2022/09/11 04:27:11;;;;;;;0.60;0.60;;;;;13.80;96130.00;;;;5114223;28;20214;-65
2022/09/11 04:29:38;;;;;;;0.60;0.60;;;;;13.70;96133.00;;;;5096441;28;20327;-66
2022/09/11 04:32:05;;;;;;;0.60;0.60;;;;;13.60;96125.00;;;;5114220;28;20203;-66
2022/09/11 04:34:32;;;;;;;0.93;0.93;;;;;13.60;96124.00;;;;5114195;28;20217;-66
2022/09/11 04:36:58;;;;;;;1.00;1.00;;;;;13.60;96115.00;;;;5114208;28;20258;-66
2022/09/11 04:39:25;;;;;;;0.70;0.70;;;;;13.60;96121.00;;;;5114101;28;20205;-65
2022/09/11 04:41:53;;;;;;;0.80;0.80;;;;;13.60;96122.00;;;;5114082;28;20265;-66
2022/09/11 04:44:20;;;;;;;0.60;0.60;;;;;13.60;96134.00;;;;5114084;28;20255;-66
2022/09/11 04:46:47;;;;;;;0.60;0.60;;;;;13.60;96144.00;;;;5113853;28;20249;-66
2022/09/11 04:49:16;;;;;;;0.80;0.80;;;;;13.80;96130.00;;;;5114084;28;20194;-66
2022/09/11 04:51:44;;;;;;;0.70;0.70;;;;;13.60;96130.00;;;;5114051;28;20264;-66
2022/09/11 04:54:13;;;;;;;1.10;1.10;;;;;13.80;96136.00;;;;5113865;28;20202;-66
2022/09/11 04:56:40;;;;;;;0.60;0.60;;;;;13.80;96142.00;;;;5095808;28;20247;-66
2022/09/11 04:59:12;;;;;;;0.97;0.97;;;;;13.60;96142.00;;;;5113818;28;20201;-64
2022/09/11 05:01:40;;;;;;;0.50;0.50;;;;;13.50;96147.00;;;;5113847;28;20218;-66
2022/09/11 05:04:07;;;;;;;1.00;1.00;;;;;13.50;96150.00;;;;5113963;28;20197;-66
2022/09/11 05:06:36;;;;;;;0.70;0.70;;;;;13.50;96161.00;;;;5114616;28;20724;-68
2022/09/11 05:09:05;;;;;;;1.07;1.07;;;;;13.50;96141.00;;;;5095825;28;20198;-66
2022/09/11 05:11:32;;;;;;;0.90;0.90;;;;;13.50;96155.00;;;;5113643;28;20213;-63
2022/09/11 05:13:59;;;;;;;1.00;1.00;;;;;13.50;96170.00;;;;5113786;28;20197;-65
2022/09/11 05:16:27;;;;;;;0.57;0.57;;;;;13.60;96162.00;;;;5113616;28;20228;-64
2022/09/11 05:18:56;;;;;;;0.90;0.90;;;;;13.60;96165.00;;;;5113616;28;20198;-66
2022/09/11 05:21:26;;;;;;;1.10;1.10;;;;;13.60;96164.00;;;;5113469;28;20226;-66
2022/09/11 05:23:55;;;;;;;1.63;1.53;;;;;13.60;96171.00;;;;5113503;28;20205;-66
2022/09/11 05:26:26;;;;;;;1.03;1.03;;;;;13.60;96175.00;;;;5113506;28;20363;-66
2022/09/11 05:28:54;;;;;;;0.57;0.57;;;;;13.70;96174.00;;;;5117006;28;20235;-66
2022/09/11 05:31:21;;;;;;;0.60;0.60;;;;;13.70;96173.00;;;;5099055;28;20290;-65
2022/09/11 05:33:48;;;;;;;1.33;1.23;;;;;13.70;96176.00;;;;5117038;28;20204;-66
2022/09/11 05:36:16;;;;;;;0.63;0.63;;;;;13.70;96178.00;;;;5117086;28;20222;-66
2022/09/11 05:38:46;;;;;;;0.87;0.87;;;;;13.70;96178.00;;;;5099178;28;20629;-65
2022/09/11 05:41:14;;;;;;;0.70;0.70;;;;;13.70;96184.00;;;;5116971;28;20275;-66
2022/09/11 05:43:42;;;;;;;0.70;0.70;;;;;13.70;96190.00;;;;5116934;28;20232;-66
2022/09/11 05:46:11;;;;;;;1.80;1.60;;;;;13.70;96192.00;;;;5116797;28;20217;-66
2022/09/11 05:48:41;;;;;;;1.80;0.90;;;;;13.80;96188.00;;;;5116680;28;20232;-65
2022/09/11 05:51:12;;;;;;;0.90;0.90;;;;;13.70;96203.00;;;;5098965;28;20635;-66
2022/09/11 05:53:40;;;;;;;0.67;0.67;;;;;13.80;96206.00;;;;5098659;28;20544;-65
2022/09/11 05:56:08;;;;;;;0.70;0.70;;;;;13.70;96201.00;;;;5116581;28;20214;-65
2022/09/11 05:58:35;;;;;;;0.90;0.90;;;;;13.80;96206.00;;;;5116626;28;20222;-66
2022/09/11 06:01:07;;;;;;;2.87;1.57;;;;;13.90;96205.00;;;;5116553;28;20237;-66
2022/09/11 06:03:34;;;;;;;0.93;0.93;;;;;14.00;96210.00;;;;5116572;28;20331;-66
2022/09/11 06:06:05;;;;;;;1.33;0.93;;;;;14.10;96213.00;;;;5116438;28;20309;-66
2022/09/11 06:08:33;;;;;;;0.60;0.60;;;;;14.00;96219.00;;;;5098473;28;20255;-65
2022/09/11 06:11:01;;;;;;;1.20;1.20;;;;;13.90;96209.00;;;;5116310;28;20667;-66
2022/09/11 06:13:30;;;;;;;1.47;1.37;;;;;14.00;96217.00;;;;5116463;28;20271;-66
2022/09/11 06:15:57;;;;;;;1.03;1.00;;;;;14.00;96228.00;;;;5116409;28;20282;-66
2022/09/11 06:18:24;;;;;;;1.20;1.10;;;;;14.10;96232.00;;;;5116595;28;20198;-66
2022/09/11 06:20:57;;;;;;;1.10;1.10;;;;;14.20;96221.00;;;;5098334;28;20690;-66
2022/09/11 06:23:24;;;;;;;0.60;0.60;;;;;14.10;96227.00;;;;5116315;28;20621;-66
2022/09/11 06:25:53;;;;;;;0.77;0.73;;;;;14.20;96227.00;;;;5116259;28;20645;-65
2022/09/11 06:28:21;;;;;;;1.37;1.37;;;;;14.30;96230.00;;;;5116181;28;20698;-68
2022/09/11 06:30:48;;;;;;;1.10;1.10;;;;;14.20;96233.00;;;;5116113;28;20198;-65
2022/09/11 06:33:16;;;;;;;1.90;1.80;;;;;14.30;96231.00;;;;5116765;28;20198;-66
2022/09/11 06:35:42;;;;;;;0.90;0.90;;;;;14.40;96243.00;;;;5116265;28;20225;-65
2022/09/11 06:38:09;;;;;;;1.00;1.00;;;;;14.70;96232.00;;;;5097692;28;20254;-65
2022/09/11 06:40:38;;;;;;;0.70;0.70;;;;;14.70;96234.00;;;;5115859;28;20190;-65
2022/09/11 06:43:05;;;;;;;1.57;1.30;;;;;14.60;96240.00;;;;5116051;28;20285;-66
2022/09/11 06:45:32;;;;;;;1.67;1.57;;;;;14.60;96231.00;;;;5115903;28;20190;-65
2022/09/11 06:47:59;;;;;;;0.90;0.90;;;;;14.60;96238.00;;;;5115962;28;20224;-66
2022/09/11 06:50:26;;;;;;;0.93;0.93;;;;;14.70;96240.00;;;;5115853;28;20272;-65
2022/09/11 06:52:53;;;;;;;0.80;0.80;;;;;14.70;96239.00;;;;5115862;28;20190;-66
2022/09/11 06:55:20;;;;;;;1.60;1.50;;;;;14.70;96244.00;;;;5115741;28;20271;-66
2022/09/11 06:57:47;;;;;;;1.60;1.50;;;;;14.60;96243.00;;;;5097718;28;20198;-65
2022/09/11 07:00:14;;;;;;;0.70;0.70;;;;;14.80;96242.00;;;;5115732;28;20201;-66
2022/09/11 07:02:41;;;;;;;1.23;1.13;;;;;14.90;96247.00;;;;5115571;28;20214;-66
2022/09/11 07:05:10;;;;;;;1.07;1.07;;;;;15.10;96243.00;;;;5115641;28;20700;-65
2022/09/11 07:07:38;;;;;;;1.90;1.67;;;;;15.20;96240.00;;;;5115384;28;20226;-66
2022/09/11 07:10:09;;;;;;;1.13;1.13;;;;;15.40;96239.00;;;;5115465;28;20273;-66
2022/09/11 07:12:37;;;;;;;0.80;0.80;;;;;15.40;96240.00;;;;5115214;28;20660;-65
2022/09/11 07:15:06;;;;;;;1.90;1.80;;;;;15.30;96242.00;;;;5115448;28;20206;-66
2022/09/11 07:17:33;;;;;;;1.23;1.23;;;;;15.40;96250.00;;;;5115333;28;20214;-65
2022/09/11 07:20:00;;;;;;;2.23;1.93;;;;;15.40;96247.00;;;;5115327;28;20344;-64
2022/09/11 07:22:30;;;;;;;1.47;1.37;;;;;15.40;96254.00;;;;5097195;28;20285;-66
2022/09/11 07:24:57;;;;;;;1.30;1.20;;;;;15.60;96249.00;;;;5115195;28;20290;-64
2022/09/11 07:27:24;;;;;;;1.63;1.53;;;;;15.70;96251.00;;;;5115069;28;20251;-65
2022/09/11 07:29:51;;;;;;;1.23;0.97;;;;;15.70;96261.00;;;;5097385;28;20202;-66
2022/09/11 07:32:17;;;;;;;0.93;0.93;;;;;15.80;96256.00;;;;5114997;28;20217;-66
2022/09/11 07:34:46;;;;;;;1.33;1.23;;;;;16.10;96267.00;;;;5115124;28;20220;-66
2022/09/11 07:37:16;;;;;;;0.93;0.93;;;;;16.20;96265.00;;;;5115040;28;20221;-62
2022/09/11 07:39:43;;;;;;;1.23;1.23;;;;;16.20;96274.00;;;;5114996;28;20206;-66
2022/09/11 07:42:09;;;;;;;1.00;1.00;;;;;16.30;96277.00;;;;5114868;28;20206;-64
2022/09/11 07:44:36;;;;;;;1.10;1.10;;;;;16.40;96274.00;;;;5115073;28;20264;-66
2022/09/11 07:47:04;;;;;;;0.93;0.93;;;;;16.30;96284.00;;;;5114706;28;20580;-66
2022/09/11 07:49:31;;;;;;;1.03;1.03;;;;;16.40;96275.00;;;;5114676;28;20286;-64
2022/09/11 07:51:58;;;;;;;1.27;1.27;;;;;16.60;96282.00;;;;5114740;28;20240;-66
2022/09/11 07:54:28;;;;;;;0.60;0.60;;;;;16.40;96277.00;;;;5114888;28;20194;-66
2022/09/11 07:56:58;;;;;;;0.90;0.90;;;;;16.40;96282.00;;;;5114745;28;20355;-66
2022/09/11 07:59:25;;;;;;;1.03;1.03;;;;;16.40;96285.00;;;;5114789;28;20202;-66
2022/09/11 08:01:52;;;;;;;1.30;1.20;;;;;16.30;96283.00;;;;5114794;28;20540;-66
2022/09/11 08:04:19;;;;;;;0.90;0.90;;;;;16.40;96286.00;;;;5114741;28;20209;-66
2022/09/11 08:06:46;;;;;;;0.87;0.87;;;;;16.50;96284.00;;;;5114337;28;20285;-65
2022/09/11 08:09:14;;;;;;;2.23;2.13;;;;;16.40;96282.00;;;;5114708;28;20212;-66
2022/09/11 08:11:44;;;;;;;1.03;1.03;;;;;16.40;96278.00;;;;5114456;28;20208;-65
2022/09/11 08:14:12;;;;;;;1.20;1.20;;;;;16.50;96284.00;;;;5114608;28;20201;-64
2022/09/11 08:16:39;;;;;;;1.10;1.10;;;;;16.30;96287.00;;;;5114637;28;20240;-66
2022/09/11 08:19:07;;;;;;;1.10;1.10;;;;;16.30;96290.00;;;;5114732;28;20221;-65
2022/09/11 08:21:34;;;;;;;0.70;0.70;;;;;16.50;96281.00;;;;5114458;28;20198;-66
2022/09/11 08:24:02;;;;;;;6.33;1.60;;;;;16.60;96289.00;;;;5114477;28;20225;-66
2022/09/11 08:26:30;;;;;;;0.93;0.93;;;;;16.60;96287.00;;;;5114470;28;20272;-66
2022/09/11 08:28:59;;;;;;;0.70;0.70;;;;;16.80;96292.00;;;;5114322;28;20218;-64
2022/09/11 08:31:27;;;;;;;0.90;0.90;;;;;16.90;96292.00;;;;5114384;28;20197;-68
2022/09/11 08:33:55;;;;;;;1.70;1.60;;;;;16.80;96293.00;;;;5114466;28;20197;-66
2022/09/11 08:36:22;;;;;;;0.97;0.97;;;;;16.70;96300.00;;;;5114236;28;20513;-66
2022/09/11 08:38:50;;;;;;;0.93;0.93;;;;;16.60;96294.00;;;;5114204;28;20275;-66
2022/09/11 08:41:31;;;;;;;0.80;0.80;;;;;16.60;96290.00;;;;5114167;28;20194;-66
2022/09/11 08:44:03;;;;;;;0.93;0.93;;;;;16.40;96293.00;;;;5114166;28;20216;-66
2022/09/11 08:46:35;;;;;;;1.43;1.33;;;;;16.60;96300.00;;;;5114148;28;20692;-66
2022/09/11 08:49:07;;;;;;;1.03;1.03;;;;;16.60;96305.00;;;;5113976;28;20217;-66
2022/09/11 08:51:35;;;;;;;1.57;1.50;;;;;16.80;96299.00;;;;5114104;28;20300;-66
2022/09/11 08:54:06;;;;;;;1.40;1.40;;;;;17.00;96304.00;;;;5114118;28;20258;-66
2022/09/11 08:56:35;;;;;;;1.10;1.10;;;;;17.10;96301.00;;;;5114275;28;20543;-66
2022/09/11 08:59:17;;;;;;;0.77;0.77;;;;;17.50;96292.00;;;;5114164;28;20240;-67
2022/09/11 09:01:52;;;;;;;3.93;1.53;;;;;17.60;96291.00;;;;5113539;28;20223;-66
2022/09/11 09:04:34;;;;;;;2.53;1.27;;;;;17.70;96303.00;;;;5114130;28;20276;-64
2022/09/11 09:07:09;;;;;;;1.17;1.17;;;;;17.60;96311.00;;;;5113838;28;20197;-66
2022/09/11 09:09:42;;;;;;;1.10;1.10;;;;;17.50;96307.00;;;;5114660;28;20473;-66
2022/09/11 09:12:17;;;;;;;0.80;0.80;;;;;17.40;96308.00;;;;5095897;28;20179;-66
2022/09/11 09:15:15;;;;;;;0.90;0.90;;;;;17.70;96317.00;;;;5114054;28;20551;-67
2022/09/11 09:17:50;;;;;;;0.93;0.93;;;;;18.00;96315.00;;;;5113865;28;20562;-66
2022/09/11 09:20:20;;;;;;;1.10;1.10;;;;;17.70;96318.00;;;;5116460;28;20257;-66
2022/09/11 09:22:52;;;;;;;0.80;0.80;;;;;17.40;96312.00;;;;5115399;28;20579;-66
2022/09/11 09:25:24;;;;;;;1.63;1.50;;;;;17.70;96320.00;;;;5113638;28;20225;-66
2022/09/11 09:27:59;;;;;;;0.77;0.77;;;;;17.70;96321.00;;;;5113350;28;20730;-63
2022/09/11 09:30:34;;;;;;;0.93;0.93;;;;;17.80;96325.00;;;;5113759;28;20198;-66
2022/09/11 09:33:07;;;;;;;1.10;1.10;;;;;17.50;96324.00;;;;5113623;28;20341;-66
2022/09/11 09:35:40;;;;;;;1.47;1.47;;;;;17.60;96321.00;;;;5113469;28;20205;-66
2022/09/11 09:38:11;;;;;;;2.10;1.67;;;;;17.70;96318.00;;;;5113393;28;20656;-66
2022/09/11 09:40:43;;;;;;;0.87;0.87;;;;;18.20;96316.00;;;;5113396;28;20682;-68
2022/09/11 09:43:21;;;;;;;1.27;1.13;;;;;18.30;96315.00;;;;5095349;28;20562;-65
2022/09/11 09:46:09;;;;;;;0.73;0.73;;;;;18.60;96314.00;;;;5113213;28;20212;-66
2022/09/11 09:48:38;;;;;;;1.27;1.27;;;;;18.40;96330.00;;;;5113204;28;20295;-66
2022/09/11 09:51:10;;;;;;;0.87;0.87;;;;;18.30;96321.00;;;;5113235;28;20212;-66
2022/09/11 09:53:40;;;;;;;1.03;1.03;;;;;18.20;96322.00;;;;5113167;28;20216;-66
2022/09/11 09:56:12;;;;;;;1.20;1.20;;;;;18.30;96326.00;;;;5113324;28;20200;-66
2022/09/11 09:58:45;;;;;;;1.10;1.10;;;;;18.30;96322.00;;;;5113214;28;20288;-67
2022/09/11 10:01:43;;;;;;;0.67;0.67;;;;;18.20;96321.00;;;;5113197;28;20273;-66
2022/09/11 10:04:16;;;;;;;1.93;1.83;;;;;18.30;96317.00;;;;5112950;28;20218;-65
2022/09/11 10:06:44;;;;;;;1.30;1.30;;;;;18.60;96316.00;;;;5113010;28;20195;-66
2022/09/11 10:09:26;;;;;;;0.80;0.80;;;;;19.00;96311.00;;;;5112927;28;20233;-65
2022/09/11 10:11:55;;;;;;;0.93;0.93;;;;;19.20;96313.00;;;;5113020;28;20190;-65
2022/09/11 10:14:23;;;;;;;0.80;0.80;;;;;19.30;96316.00;;;;5114364;28;20194;-66
2022/09/11 10:16:52;;;;;;;1.33;1.30;;;;;19.30;96309.00;;;;5116453;28;20644;-65
2022/09/11 10:19:42;;;;;;;2.80;1.03;;;;;19.10;96314.00;;;;5116452;28;20230;-66
2022/09/11 10:22:24;;;;;;;1.90;1.80;;;;;19.30;96313.00;;;;5116446;28;20252;-66
2022/09/11 10:25:10;;;;;;;0.83;0.83;;;;;19.60;96317.00;;;;5116287;28;20217;-65
2022/09/11 10:27:45;;;;;;;1.90;1.73;;;;;19.60;96307.00;;;;5116135;28;20221;-66
2022/09/11 10:30:37;;;;;;;0.70;0.70;;;;;19.50;96302.00;;;;5116287;28;20189;-66
2022/09/11 10:33:26;;;;;;;0.60;0.60;;;;;19.50;96302.00;;;;5116115;28;20218;-66
2022/09/11 10:35:54;;;;;;;7.03;1.37;;;;;20.00;96288.00;;;;5116168;28;20198;-66
2022/09/11 10:38:25;;;;;;;0.77;0.77;;;;;20.20;96301.00;;;;5115949;28;20252;-66
2022/09/11 10:41:01;;;;;;;1.03;1.03;;;;;19.80;96287.00;;;;5098398;28;20232;-65
2022/09/11 10:43:37;;;;;;;0.63;0.63;;;;;20.30;96285.00;;;;5116037;28;20221;-62
2022/09/11 10:46:20;;;;;;;1.37;1.37;;;;;20.20;96283.00;;;;5116025;28;20274;-66
2022/09/11 10:48:54;;;;;;;0.97;0.97;;;;;19.50;96280.00;;;;5115754;28;20229;-66
2022/09/11 10:51:22;;;;;;;1.33;1.23;;;;;19.90;96284.00;;;;5115894;28;20640;-67
2022/09/11 10:54:04;;;;;;;0.90;0.90;;;;;19.90;96280.00;;;;5115624;28;20225;-63
2022/09/11 10:56:36;;;;;;;1.23;1.17;;;;;20.40;96273.00;;;;5115714;28;20333;-66
2022/09/11 10:59:16;;;;;;;1.10;1.07;;;;;20.80;96279.00;;;;5097674;28;20747;-66
2022/09/11 11:01:44;;;;;;;0.40;0.40;;;;;20.90;96279.00;;;;5115709;28;20206;-67
2022/09/11 11:04:11;;;;;;;1.27;1.27;;;;;21.10;96286.00;;;;5097694;28;20754;-66
2022/09/11 11:06:53;;;;;;;1.07;1.07;;;;;20.40;96283.00;;;;5115732;28;20202;-66
2022/09/11 11:09:42;;;;;;;0.97;0.97;;;;;20.50;96273.00;;;;5115299;28;20733;-65
2022/09/11 11:12:31;;;;;;;0.80;0.80;;;;;20.60;96277.00;;;;5115521;28;20190;-66
2022/09/11 11:15:29;;;;;;;1.17;1.13;;;;;20.90;96278.00;;;;5115394;28;20209;-66
2022/09/11 11:18:18;;;;;;;1.00;1.00;;;;;21.30;96276.00;;;;5107299;28;20217;-65
2022/09/11 11:20:58;;;;;;;0.80;0.80;;;;;21.30;96276.00;;;;5115367;28;20289;-66
2022/09/11 11:23:38;;;;;;;1.37;1.13;;;;;21.50;96289.00;;;;5115215;28;20285;-66
2022/09/11 11:26:20;;;;;;;1.10;1.10;;;;;21.70;96306.00;;;;5114973;28;20194;-66
2022/09/11 11:29:25;;;;;;;1.00;1.00;;;;;21.20;96308.00;;;;5115036;28;20290;-65
2022/09/11 11:32:08;;;;;;;0.87;0.87;;;;;20.70;96313.00;;;;5089804;28;20226;-67
2022/09/11 11:35:00;;;;;;;0.80;0.80;;;;;20.60;96311.00;;;;5115201;28;20218;-67
2022/09/11 11:37:31;;;;;;;0.60;0.60;;;;;20.30;96310.00;;;;5115144;28;20326;-64
2022/09/11 11:40:03;;;;;;;0.50;0.50;;;;;20.20;96312.00;;;;5114921;28;20568;-65
2022/09/11 11:42:34;;;;;;;1.00;1.00;;;;;20.30;96282.00;;;;5114951;28;20190;-66
2022/09/11 11:45:08;;;;;;;0.80;0.80;;;;;21.20;96299.00;;;;5115099;28;20209;-66
2022/09/11 11:47:41;;;;;;;0.90;0.90;;;;;21.20;96306.00;;;;5115138;28;20212;-66
2022/09/11 11:50:17;;;;;;;1.30;1.13;;;;;20.80;96309.00;;;;5114944;28;20362;-66
2022/09/11 11:52:55;;;;;;;0.97;0.97;;;;;20.80;96298.00;;;;5115204;28;20206;-66
2022/09/11 11:55:26;;;;;;;1.00;1.00;;;;;21.10;96305.00;;;;5114930;28;20193;-65
2022/09/11 11:58:13;;;;;;;0.50;0.50;;;;;21.10;96304.00;;;;5097099;28;20209;-66
2022/09/11 12:00:46;;;;;;;1.33;1.27;;;;;21.60;96293.00;;;;5114795;28;20214;-68
2022/09/11 12:03:20;;;;;;;0.63;0.63;;;;;21.90;96291.00;;;;5114897;28;20606;-67
2022/09/11 12:05:47;;;;;;;0.80;0.80;;;;;22.10;96301.00;;;;5114825;28;20524;-67
2022/09/11 12:08:15;;;;;;;0.93;0.93;;;;;21.80;96296.00;;;;5114721;28;20228;-66
2022/09/11 12:10:46;;;;;;;0.65;0.65;;;;;21.20;96304.00;;;;5114844;28;20198;-66
2022/09/11 12:13:15;;;;;;;1.37;1.27;;;;;21.50;96279.00;;;;5114740;28;20205;-68
2022/09/11 12:16:03;;;;;;;1.08;1.08;;;;;22.20;96275.00;;;;5096736;28;20481;-66
2022/09/11 12:18:30;;;;;;;0.70;0.70;;;;;22.60;96280.00;;;;5114386;28;20612;-66
2022/09/11 12:21:30;;;;;;;0.80;0.80;;;;;22.60;96290.00;;;;5096934;28;20690;-66
2022/09/11 12:24:14;;;;;;;0.60;0.60;;;;;22.90;96299.00;;;;5083486;28;20233;-66
2022/09/11 12:26:41;;;;;;;0.77;0.77;;;;;22.90;96293.00;;;;5112585;28;20653;-65
2022/09/11 12:29:50;;;;;;;0.50;0.50;;;;;23.30;96277.00;;;;5096054;28;20240;-67
2022/09/11 12:32:43;;;;;;;1.48;0.90;;;;;24.30;96268.00;;;;5114114;28;20625;-66
2022/09/11 12:35:34;;;;;;;1.70;1.42;;;;;24.60;96290.00;;;;5096224;28;20237;-66
2022/09/11 12:38:12;;;;;;;0.45;0.45;;;;;24.50;96289.00;;;;5107460;28;20267;-67
2022/09/11 12:40:46;;;;;;;0.85;0.85;;;;;24.60;96289.00;;;;5114362;28;20644;-66
2022/09/11 12:43:29;;;;;;;0.63;0.63;;;;;24.40;96289.00;;;;5114280;28;20212;-69